Time;durP1;ratioP1;P1;durP2;ratioP2;P2;SDS_P1;SDS_P2;PMS_P1;PMS_P2;Temp;Humidity;BMP_temperature;BMP_pressure;BME280_temperature;BME280_humidity;BME280_pressure;Samples;Min_cycle;Max_cycle;Signal;HPM_P1;HPM_P2
2021/12/10 00:00:43;;;;;;;8.40;3.85;;;;;;;-11.10;68.03;100749.78;4973065;28;20051;-62
2021/12/10 00:03:32;;;;;;;7.90;3.90;;;;;;;-11.11;67.16;100745.41;4972270;28;20125;-60
2021/12/10 00:06:11;;;;;;;11.45;4.88;;;;;;;-11.14;67.29;100745.72;4959411;28;20413;-61
2021/12/10 00:08:42;;;;;;;9.85;3.63;;;;;;;-11.14;68.00;100747.59;4972666;28;20054;-62
2021/12/10 00:11:19;;;;;;;8.75;3.67;;;;;;;-11.11;67.21;100755.31;4970414;28;20078;-57
2021/12/10 00:13:47;;;;;;;10.88;3.95;;;;;;;-11.07;67.23;100749.44;4972929;28;20074;-61
2021/12/10 00:16:16;;;;;;;6.22;3.25;;;;;;;-11.07;67.11;100760.19;4970853;28;20485;-63
2021/12/10 00:18:50;;;;;;;6.13;3.53;;;;;;;-11.06;67.25;100764.56;4973115;28;20489;-61
2021/12/10 00:21:18;;;;;;;7.28;3.30;;;;;;;-11.07;67.58;100762.03;4970685;28;20047;-62
2021/12/10 00:23:49;;;;;;;11.90;4.40;;;;;;;-11.07;66.70;100759.34;4972558;28;20062;-60
2021/12/10 00:26:20;;;;;;;6.18;3.35;;;;;;;-11.11;67.39;100753.44;4970366;28;21816;-61
2021/12/10 00:28:48;;;;;;;5.85;2.85;;;;;;;-11.18;67.09;100760.50;4972710;28;20078;-61
2021/12/10 00:34:19;;;;;;;6.95;3.88;;;;;;;-11.20;67.24;100759.81;4972774;28;20046;-62
2021/12/10 00:36:46;;;;;;;7.00;3.60;;;;;;;-11.22;68.04;100756.47;4973266;28;20074;-60
2021/12/10 00:39:21;;;;;;;8.85;4.07;;;;;;;-11.14;67.44;100766.38;4971736;28;20130;-62
2021/12/10 00:41:49;;;;;;;5.32;2.80;;;;;;;-11.21;67.67;100758.13;4973568;28;20046;-62
2021/12/10 00:44:16;;;;;;;8.82;4.05;;;;;;;-11.23;67.51;100757.44;4972432;28;20139;-59
2021/12/10 00:46:43;;;;;;;7.10;3.75;;;;;;;-11.24;67.66;100761.16;4970875;28;20046;-58
2021/12/10 00:49:11;;;;;;;8.25;3.08;;;;;;;-11.18;67.68;100765.88;4972253;28;20142;-58
2021/12/10 00:51:39;;;;;;;13.18;3.95;;;;;;;-11.18;67.71;100759.66;4969703;28;20078;-63
2021/12/10 00:54:08;;;;;;;6.70;3.35;;;;;;;-11.23;67.37;100756.63;4972228;28;20053;-57
2021/12/10 00:56:35;;;;;;;6.87;3.70;;;;;;;-11.18;67.46;100765.88;4970262;28;20050;-63
2021/12/10 00:59:03;;;;;;;6.30;3.00;;;;;;;-11.16;68.28;100766.56;4971771;28;20059;-58
2021/12/10 01:01:32;;;;;;;6.93;3.58;;;;;;;-11.22;68.86;100763.69;4969367;28;20059;-57
2021/12/10 01:04:31;;;;;;;6.47;3.35;;;;;;;-11.26;68.46;100779.25;4971829;28;20055;-59
2021/12/10 01:07:00;;;;;;;5.63;3.15;;;;;;;-11.32;69.14;100773.72;4934470;28;20054;-57
2021/12/10 01:09:32;;;;;;;10.23;3.85;;;;;;;-11.38;68.01;100774.38;4970296;28;20051;-57
2021/12/10 01:12:12;;;;;;;10.45;3.85;;;;;;;-11.41;69.21;100767.47;4970590;28;20078;-58
2021/12/10 01:26:06;;;;;;;9.18;3.60;;;;;;;-11.76;70.08;100773.03;4972183;28;20046;-54
2021/12/10 01:28:41;;;;;;;10.18;4.50;;;;;;;-11.71;69.51;100776.09;4971366;28;20053;-59
2021/12/10 01:31:09;;;;;;;7.65;3.65;;;;;;;-11.67;69.14;100775.63;4970189;28;20055;-52
2021/12/10 01:33:37;;;;;;;7.47;4.07;;;;;;;-11.60;69.60;100781.97;4971847;28;20053;-59
2021/12/10 01:36:07;;;;;;;12.68;5.15;;;;;;;-11.57;68.97;100780.84;4972595;28;20570;-61
2021/12/10 01:38:49;;;;;;;11.63;4.43;;;;;;;-11.59;69.02;100777.47;4970487;28;20138;-62
2021/12/10 01:41:20;;;;;;;12.25;4.45;;;;;;;-11.57;68.50;100778.16;4969423;28;20053;-59
2021/12/10 01:43:51;;;;;;;8.73;4.38;;;;;;;-11.56;70.08;100774.44;4970338;28;20057;-61
2021/12/10 01:46:27;;;;;;;15.30;4.72;;;;;;;-11.48;68.97;100785.22;4969662;28;20061;-55
2021/12/10 01:48:58;;;;;;;7.93;4.72;;;;;;;-11.43;69.15;100782.91;4969347;28;20422;-62
2021/12/10 01:51:29;;;;;;;15.70;5.05;;;;;;;-11.39;69.51;100778.91;4974194;28;20138;-61
2021/12/10 01:53:58;;;;;;;;;;;;;;;-11.34;69.80;100783.78;4977913;28;20043;-63
2021/12/10 01:56:29;;;;;;;7.22;4.30;;;;;;;-11.40;68.85;100787.97;4975371;28;20117;-58
2021/12/10 01:58:58;;;;;;;19.55;6.47;;;;;;;-11.53;69.59;100784.88;4977600;28;20081;-62
2021/12/10 02:01:31;;;;;;;12.07;4.97;;;;;;;-11.63;69.41;100789.56;4975285;28;20057;-59
2021/12/10 02:04:03;;;;;;;3.50;2.67;;;;;;;-11.65;69.60;100794.25;4979912;28;20058;-58
2021/12/10 02:06:30;;;;;;;9.68;4.00;;;;;;;-11.71;68.92;100794.88;4975239;28;20110;-59
2021/12/10 02:08:57;;;;;;;10.77;4.97;;;;;;;-11.75;70.29;100798.91;4977491;28;20536;-62
2021/12/10 02:11:24;;;;;;;8.40;3.83;;;;;;;-11.83;69.07;100798.84;4975728;28;20402;-58
2021/12/10 02:13:51;;;;;;;14.15;6.38;;;;;;;-11.86;68.82;100796.47;4977743;28;20057;-64
2021/12/10 02:16:18;;;;;;;13.32;4.97;;;;;;;-11.86;69.87;100802.69;4976474;28;20073;-58
2021/12/10 02:18:45;;;;;;;10.00;5.30;;;;;;;-11.82;70.50;100811.25;4976946;28;20054;-63
2021/12/10 02:21:15;;;;;;;8.02;4.15;;;;;;;-11.79;70.10;100802.88;4977663;28;20067;-60
2021/12/10 02:23:50;;;;;;;16.33;5.20;;;;;;;-11.76;68.82;100807.94;4976981;28;20405;-59
2021/12/10 02:26:17;;;;;;;8.55;4.75;;;;;;;-11.73;70.47;100799.56;4976700;28;20117;-62
2021/12/10 02:28:44;;;;;;;14.27;4.75;;;;;;;-11.78;69.09;100792.00;4976882;28;20426;-61
2021/12/10 02:31:12;;;;;;;11.43;5.45;;;;;;;-11.78;69.91;100788.47;4977541;28;20553;-61
2021/12/10 02:33:40;;;;;;;14.45;7.22;;;;;;;-11.76;70.24;100787.31;4977218;28;20085;-57
2021/12/10 02:36:11;;;;;;;9.05;4.35;;;;;;;-11.81;70.16;100794.16;4977322;28;20058;-58
2021/12/10 02:38:41;;;;;;;6.75;4.13;;;;;;;-11.85;70.08;100800.84;4975520;28;20092;-58
2021/12/10 02:41:08;;;;;;;6.72;3.75;;;;;;;-11.95;69.67;100802.78;4977722;28;20101;-62
2021/12/10 02:43:36;;;;;;;14.15;5.97;;;;;;;-11.97;69.72;100799.41;4975455;28;20078;-59
2021/12/10 02:46:04;;;;;;;14.10;5.38;;;;;;;-12.06;69.91;100800.38;4977636;28;20065;-55
2021/12/10 02:48:32;;;;;;;9.25;5.05;;;;;;;-12.15;69.61;100799.47;4976809;28;20422;-58
2021/12/10 02:51:01;;;;;;;15.20;5.50;;;;;;;-12.15;71.04;100801.31;4977528;28;20439;-59
2021/12/10 02:53:34;;;;;;;11.38;5.05;;;;;;;-12.09;70.14;100809.59;4975441;28;20070;-60
2021/12/10 02:56:03;;;;;;;11.15;5.70;;;;;;;-12.06;70.69;100803.91;4977504;28;20051;-60
2021/12/10 02:58:31;;;;;;;17.52;4.78;;;;;;;-12.03;70.34;100808.09;4958775;28;20086;-60
2021/12/10 03:01:05;;;;;;;9.38;4.88;;;;;;;-11.97;70.01;100810.16;4976780;28;20137;-60
2021/12/10 03:03:32;;;;;;;10.40;4.95;;;;;;;-11.94;69.66;100807.16;4973733;28;20058;-60
2021/12/10 03:05:59;;;;;;;9.65;4.47;;;;;;;-11.96;70.67;100801.13;4974247;28;20054;-59
2021/12/10 03:08:26;;;;;;;8.70;4.28;;;;;;;-11.91;70.16;100814.88;4971807;28;20154;-58
2021/12/10 03:10:53;;;;;;;13.00;5.82;;;;;;;-11.89;69.39;100818.25;4974037;28;20059;-59
2021/12/10 03:13:20;;;;;;;18.35;5.78;;;;;;;-11.85;69.41;100820.47;4971515;28;20082;-61
2021/12/10 03:15:47;;;;;;;11.30;5.68;;;;;;;-11.76;69.82;100813.28;4974098;28;20051;-61
2021/12/10 03:18:17;;;;;;;16.85;4.68;;;;;;;-11.70;69.07;100818.88;4973243;28;20063;-60
2021/12/10 03:20:45;;;;;;;7.47;3.77;;;;;;;-11.72;69.72;100828.09;4974332;28;20054;-58
2021/12/10 03:23:13;;;;;;;16.10;5.47;;;;;;;-11.75;70.83;100825.72;4971833;28;20517;-59
2021/12/10 03:25:40;;;;;;;17.67;6.00;;;;;;;-11.68;69.75;100821.38;4972038;28;20142;-58
2021/12/10 03:28:08;;;;;;;14.25;5.78;;;;;;;-11.64;70.75;100822.75;4972103;28;20049;-61
2021/12/10 03:30:41;;;;;;;20.38;7.40;;;;;;;-11.70;69.44;100823.38;4973872;28;20061;-59
2021/12/10 03:33:08;;;;;;;15.18;4.57;;;;;;;-11.78;69.63;100828.72;4971950;28;20042;-66
2021/12/10 03:35:42;;;;;;;11.15;4.40;;;;;;;-11.80;69.57;100825.34;4973571;28;20469;-66
2021/12/10 03:38:13;;;;;;;10.10;4.78;;;;;;;-11.80;70.00;100828.03;4972028;28;20054;-65
2021/12/10 03:40:40;;;;;;;10.95;5.18;;;;;;;-11.78;69.80;100826.84;4972290;28;20058;-63
2021/12/10 03:43:08;;;;;;;13.20;5.20;;;;;;;-11.75;70.37;100836.47;4971961;28;20097;-65
2021/12/10 03:45:39;;;;;;;13.32;5.25;;;;;;;-11.73;69.39;100823.69;4973449;28;20467;-64
2021/12/10 03:48:10;;;;;;;10.55;4.88;;;;;;;-11.71;70.76;100821.72;4972185;28;20506;-64
2021/12/10 03:50:40;;;;;;;12.82;4.25;;;;;;;-11.68;69.60;100824.94;4973568;28;20130;-64
2021/12/10 03:53:07;;;;;;;10.93;5.43;;;;;;;-11.62;70.11;100826.94;4971804;28;20182;-64
2021/12/10 03:55:35;;;;;;;6.65;3.22;;;;;;;-11.60;70.23;100832.16;4956328;28;20130;-64
2021/12/10 03:58:03;;;;;;;10.35;3.50;;;;;;;-11.69;70.36;100825.09;4955931;28;20061;-65
2021/12/10 04:00:33;;;;;;;9.90;4.80;;;;;;;-11.76;70.40;100829.38;4956513;28;20042;-63
2021/12/10 04:03:01;;;;;;;9.45;4.70;;;;;;;-11.76;69.82;100818.66;4972848;28;20063;-65
2021/12/10 04:05:29;;;;;;;14.27;5.35;;;;;;;-11.82;70.50;100813.94;4972539;28;20133;-65
2021/12/10 04:07:57;;;;;;;15.63;4.18;;;;;;;-11.80;71.24;100819.97;4972852;28;20054;-64
2021/12/10 04:10:25;;;;;;;15.55;5.88;;;;;;;-11.72;69.59;100823.53;4970538;28;20093;-61
2021/12/10 04:12:52;;;;;;;13.25;5.70;;;;;;;-11.64;70.09;100812.00;4972750;28;20046;-61
2021/12/10 04:15:22;;;;;;;15.32;6.85;;;;;;;-11.65;70.76;100815.69;4969877;28;20054;-61
2021/12/10 04:17:51;;;;;;;16.07;8.27;;;;;;;-11.59;71.26;100834.66;4972891;28;20054;-60
2021/12/10 04:20:20;;;;;;;19.05;6.95;;;;;;;-11.69;69.78;100817.84;4970751;28;20058;-63
2021/12/10 04:22:49;;;;;;;17.90;6.60;;;;;;;-11.70;70.81;100824.22;4972524;28;20054;-56
2021/12/10 04:25:19;;;;;;;29.42;12.57;;;;;;;-11.76;71.48;100829.38;4970712;28;20121;-59
2021/12/10 04:27:48;;;;;;;29.98;12.00;;;;;;;-11.73;71.61;100829.06;4972480;28;20072;-59
2021/12/10 04:30:16;;;;;;;14.35;5.85;;;;;;;-11.71;71.34;100833.28;4970595;28;20051;-61
2021/12/10 04:32:45;;;;;;;18.30;5.05;;;;;;;-11.78;70.09;100832.22;4972321;28;20054;-58
2021/12/10 04:35:18;;;;;;;12.75;6.40;;;;;;;-11.77;70.90;100838.44;4971879;28;20534;-59
2021/12/10 04:37:49;;;;;;;11.13;4.53;;;;;;;-11.76;71.68;100834.75;4972202;28;20400;-60
2021/12/10 04:40:18;;;;;;;17.85;7.03;;;;;;;-11.77;70.91;100852.72;4954319;28;20094;-63
2021/12/10 04:42:45;;;;;;;17.35;6.78;;;;;;;-11.76;71.55;100853.53;4972444;28;20046;-61
2021/12/10 04:45:14;;;;;;;20.17;6.30;;;;;;;-11.75;70.70;100852.56;4970450;28;20515;-61
2021/12/10 04:47:41;;;;;;;19.73;6.97;;;;;;;-11.76;70.66;100861.56;4972304;28;20145;-59
2021/12/10 04:50:10;;;;;;;13.88;4.78;;;;;;;-11.78;71.28;100863.59;4970197;28;20082;-56
2021/12/10 04:52:37;;;;;;;14.93;4.15;;;;;;;-11.80;71.85;100862.91;4971157;28;20062;-59
2021/12/10 04:55:07;;;;;;;16.42;6.38;;;;;;;-11.84;71.35;100862.38;4969968;28;20050;-61
2021/12/10 04:57:34;;;;;;;29.33;7.10;;;;;;;-11.89;71.03;100866.53;4970737;28;20149;-58
2021/12/10 05:00:05;;;;;;;19.30;5.88;;;;;;;-11.90;71.44;100871.03;4970598;28;20133;-61
2021/12/10 05:02:34;;;;;;;12.90;5.70;;;;;;;-11.92;71.71;100870.38;4972289;28;20050;-59
2021/12/10 05:05:03;;;;;;;14.97;4.30;;;;;;;-11.96;70.36;100878.91;4970525;28;20050;-63
2021/12/10 05:07:35;;;;;;;17.45;6.00;;;;;;;-11.97;71.04;100885.25;4971415;28;20055;-59
2021/12/10 05:10:08;;;;;;;14.50;7.05;;;;;;;-12.00;70.55;100874.81;4970721;28;20051;-65
2021/12/10 05:12:36;;;;;;;20.40;8.23;;;;;;;-12.05;70.33;100887.88;4969585;28;20047;-63
2021/12/10 05:15:06;;;;;;;16.60;7.05;;;;;;;-12.06;70.66;100883.50;4970023;28;20061;-64
2021/12/10 05:17:34;;;;;;;19.65;8.20;;;;;;;-12.07;70.65;100885.34;4971340;28;20050;-64
2021/12/10 05:20:11;;;;;;;16.83;6.65;;;;;;;-12.05;71.24;100879.84;4970873;28;20065;-64
2021/12/10 05:22:44;;;;;;;25.10;8.07;;;;;;;-12.09;71.28;100875.75;4970266;28;20399;-69
2021/12/10 05:25:12;;;;;;;17.33;5.78;;;;;;;-12.11;70.58;100877.78;4969503;28;20145;-62
2021/12/10 05:27:41;;;;;;;8.60;4.93;;;;;;;-12.13;71.17;100867.22;4971163;28;20452;-64
2021/12/10 05:30:12;;;;;;;10.57;4.55;;;;;;;-12.16;71.77;100870.19;4970166;28;20134;-63
2021/12/10 05:32:39;;;;;;;19.33;6.07;;;;;;;-12.16;71.78;100880.06;4968147;28;20047;-63
2021/12/10 05:35:07;;;;;;;26.52;10.40;;;;;;;-12.16;71.94;100888.13;4972091;28;20082;-64
2021/12/10 05:37:34;;;;;;;25.92;6.25;;;;;;;-12.16;70.95;100880.06;4971002;28;20062;-63
2021/12/10 05:40:03;;;;;;;16.92;6.05;;;;;;;-12.10;70.59;100884.81;4971011;28;20051;-66
2021/12/10 05:42:30;;;;;;;14.43;5.05;;;;;;;-12.09;70.93;100884.66;4972122;28;20065;-65
2021/12/10 05:44:57;;;;;;;16.85;5.85;;;;;;;-12.01;71.02;100894.59;4971236;28;20061;-65
2021/12/10 05:47:24;;;;;;;17.65;5.75;;;;;;;-11.93;70.56;100889.31;4953257;28;20078;-63
2021/12/10 05:49:51;;;;;;;11.75;6.20;;;;;;;-11.85;71.02;100900.09;4955386;28;20055;-66
2021/12/10 05:52:19;;;;;;;12.05;5.72;;;;;;;-11.78;70.68;100901.97;4969049;28;20046;-64
2021/12/10 05:54:46;;;;;;;29.55;8.00;;;;;;;-11.75;70.65;100901.66;4955475;28;20056;-65
2021/12/10 05:57:13;;;;;;;16.27;5.80;;;;;;;-11.69;71.43;100905.56;4952673;28;20043;-65
2021/12/10 05:59:40;;;;;;;14.60;7.10;;;;;;;-11.68;70.16;100901.88;4971411;28;20061;-65
2021/12/10 06:02:07;;;;;;;15.88;7.35;;;;;;;-11.68;70.37;100902.75;4970517;28;20429;-65
2021/12/10 06:04:35;;;;;;;13.82;5.78;;;;;;;-11.65;70.39;100902.41;4971157;28;20109;-63
2021/12/10 06:07:04;;;;;;;12.93;6.25;;;;;;;-11.66;71.38;100905.25;4968789;28;20074;-66
2021/12/10 06:09:32;;;;;;;21.10;6.15;;;;;;;-11.65;71.26;100912.31;4971193;28;20082;-66
2021/12/10 06:12:02;;;;;;;15.40;6.18;;;;;;;-11.68;70.80;100904.56;4969193;28;20057;-66
2021/12/10 06:14:29;;;;;;;14.40;6.97;;;;;;;-11.67;70.20;100919.66;4970839;28;20522;-64
2021/12/10 06:16:56;;;;;;;24.88;8.98;;;;;;;-11.68;70.23;100904.56;4969208;28;20055;-67
2021/12/10 06:19:24;;;;;;;19.90;7.13;;;;;;;-11.66;71.06;100916.00;4967584;28;20066;-64
2021/12/10 06:21:51;;;;;;;13.23;4.97;;;;;;;-11.66;70.88;100921.38;4971652;28;20075;-68
2021/12/10 06:24:19;;;;;;;18.92;7.32;;;;;;;-11.65;70.17;100928.41;4970495;28;20133;-65
2021/12/10 06:26:46;;;;;;;13.00;6.43;;;;;;;-11.65;71.56;100928.41;4971063;28;20061;-65
2021/12/10 06:29:13;;;;;;;12.80;6.13;;;;;;;-11.63;70.96;100921.03;4969365;28;20078;-66
2021/12/10 06:31:40;;;;;;;7.10;3.90;;;;;;;-11.61;71.39;100925.22;4970853;28;20145;-63
2021/12/10 06:34:10;;;;;;;11.30;4.30;;;;;;;-11.59;71.17;100938.47;4968482;28;20047;-65
2021/12/10 06:36:38;;;;;;;30.17;7.35;;;;;;;-11.58;70.62;100930.25;4970738;28;20050;-66
2021/12/10 06:39:05;;;;;;;17.70;6.82;;;;;;;-11.56;70.40;100928.28;4971131;28;20065;-67
2021/12/10 06:41:33;;;;;;;11.95;5.38;;;;;;;-11.57;70.73;100925.75;4974512;28;20451;-65
2021/12/10 06:44:04;;;;;;;15.68;8.32;;;;;;;-11.57;70.60;100931.94;4972493;28;20061;-66
2021/12/10 06:46:33;;;;;;;13.75;5.50;;;;;;;-11.57;70.50;100929.25;4974426;28;20126;-64
2021/12/10 06:49:01;;;;;;;11.68;5.68;;;;;;;-11.53;71.04;100926.28;4956157;28;20051;-66
2021/12/10 06:51:28;;;;;;;11.07;5.88;;;;;;;-11.49;71.21;100933.88;4974532;28;20057;-64
2021/12/10 06:53:54;;;;;;;16.30;7.25;;;;;;;-11.50;70.35;100942.91;4972006;28;20048;-67
2021/12/10 06:56:23;;;;;;;13.68;5.20;;;;;;;-11.50;70.58;100931.34;4974376;28;20073;-67
2021/12/10 06:58:51;;;;;;;11.50;4.82;;;;;;;-11.49;69.50;100924.97;4972091;28;20051;-65
2021/12/10 07:01:25;;;;;;;17.80;6.47;;;;;;;-11.41;70.47;100931.22;4973872;28;20141;-65
2021/12/10 07:03:54;;;;;;;19.80;6.25;;;;;;;-11.36;69.98;100926.22;4956238;28;20062;-65
2021/12/10 07:06:22;;;;;;;10.65;5.95;;;;;;;-11.33;69.79;100917.84;4974375;28;20051;-67
2021/12/10 07:08:51;;;;;;;14.38;6.00;;;;;;;-11.21;69.24;100932.69;4971795;28;20047;-66
2021/12/10 07:11:20;;;;;;;16.17;6.68;;;;;;;-11.20;69.18;100937.03;4973887;28;20055;-64
2021/12/10 07:13:51;;;;;;;18.35;7.13;;;;;;;-11.26;68.85;100934.16;4971709;28;20137;-65
2021/12/10 07:16:23;;;;;;;11.90;5.20;;;;;;;-11.31;69.41;100937.34;4972451;28;20051;-67
2021/12/10 07:18:52;;;;;;;13.35;6.03;;;;;;;-11.35;70.14;100941.31;4971816;28;20065;-66
2021/12/10 07:21:19;;;;;;;11.80;4.68;;;;;;;-11.29;69.16;100935.31;4973494;28;20051;-66
2021/12/10 07:23:46;;;;;;;6.22;4.25;;;;;;;-11.27;69.05;100948.56;4971788;28;20415;-63
2021/12/10 07:26:14;;;;;;;14.45;4.88;;;;;;;-11.26;69.60;100939.53;4972053;28;20504;-65
2021/12/10 07:28:42;;;;;;;13.77;5.35;;;;;;;-11.18;69.02;100947.63;4972420;28;20141;-66
2021/12/10 07:31:10;;;;;;;14.65;5.55;;;;;;;-11.14;68.47;100943.63;4955492;28;20105;-65
2021/12/10 07:33:37;;;;;;;10.73;5.25;;;;;;;-11.14;68.57;100943.63;4957093;28;20058;-65
2021/12/10 07:36:06;;;;;;;13.45;5.70;;;;;;;-11.08;69.77;100946.50;4971506;28;20062;-65
2021/12/10 07:38:33;;;;;;;17.13;5.97;;;;;;;-11.09;68.92;100958.25;4973916;28;20586;-64
2021/12/10 07:41:01;;;;;;;32.38;12.27;;;;;;;-11.08;68.55;100948.38;4971221;28;20166;-65
2021/12/10 07:43:28;;;;;;;18.63;6.20;;;;;;;-11.07;68.72;100961.63;4973602;28;20047;-67
2021/12/10 07:45:55;;;;;;;12.15;5.75;;;;;;;-11.07;68.17;100955.41;4971248;28;20076;-64
2021/12/10 07:48:26;;;;;;;13.07;6.18;;;;;;;-11.13;68.37;100951.53;4973319;28;20146;-64
2021/12/10 07:51:10;;;;;;;20.48;7.55;;;;;;;-11.07;68.98;100948.19;4955417;28;20062;-65
2021/12/10 07:53:39;;;;;;;10.25;4.47;;;;;;;-11.14;67.41;100944.44;4973287;28;20075;-66
2021/12/10 07:56:09;;;;;;;9.23;3.83;;;;;;;-11.16;67.77;100954.53;4973163;28;20455;-63
2021/12/10 07:58:40;;;;;;;;;;;;;;;-11.10;67.28;100956.59;4974030;28;20501;-65
2021/12/10 08:01:11;;;;;;;14.05;5.38;;;;;;;-11.00;68.18;100957.28;4972726;28;19926;-61
2021/12/10 08:03:38;;;;;;;;;;;;;;;-10.52;66.80;100946.72;4973625;28;20051;-63
2021/12/10 08:06:05;;;;;;;10.35;4.75;;;;;;;-10.26;66.42;100942.09;4971005;28;20024;-65
2021/12/10 08:08:32;;;;;;;13.85;5.53;;;;;;;-9.96;65.15;100933.34;4973183;28;20090;-64
2021/12/10 08:11:00;;;;;;;13.00;5.72;;;;;;;-9.61;64.63;100935.72;4954898;28;20141;-65
2021/12/10 08:13:27;;;;;;;22.27;5.75;;;;;;;-9.39;64.58;100941.41;4972986;28;20145;-64
2021/12/10 08:15:53;;;;;;;15.30;6.22;;;;;;;-9.42;63.74;100925.59;4970704;28;20059;-67
2021/12/10 08:18:20;;;;;;;19.02;7.95;;;;;;;-9.57;63.89;100932.69;4972497;28;20074;-62
2021/12/10 08:20:52;;;;;;;14.77;5.43;;;;;;;-8.78;63.60;100922.69;4970757;28;20470;-63
2021/12/10 08:23:19;;;;;;;22.77;6.55;;;;;;;-7.04;60.85;100936.00;4973055;28;20047;-62
2021/12/10 08:25:47;;;;;;;14.80;5.63;;;;;;;-5.94;58.09;100918.47;4970535;28;20054;-63
2021/12/10 08:28:15;;;;;;;11.45;5.25;;;;;;;-5.87;58.03;100927.50;4972600;28;20058;-65
2021/12/10 08:30:42;;;;;;;11.85;5.72;;;;;;;-6.27;59.44;100924.53;4970704;28;20058;-59
2021/12/10 08:33:14;;;;;;;12.02;5.72;;;;;;;-6.23;58.73;100936.66;4971945;28;20046;-61
2021/12/10 08:35:44;;;;;;;13.77;6.35;;;;;;;-6.53;58.65;100941.31;4969985;28;20050;-60
2021/12/10 08:38:12;;;;;;;12.30;5.50;;;;;;;-7.03;58.78;100932.25;4972203;28;20514;-59
2021/12/10 08:40:43;;;;;;;12.68;5.60;;;;;;;-7.05;58.90;100940.56;4971189;28;20053;-60
2021/12/10 08:43:10;;;;;;;13.55;5.75;;;;;;;-7.42;59.12;100943.31;4970576;28;20051;-61
2021/12/10 08:45:39;;;;;;;16.27;5.20;;;;;;;-7.96;59.22;100939.03;4970685;28;20076;-61
2021/12/10 08:48:07;;;;;;;15.13;6.45;;;;;;;-8.14;59.59;100928.53;4971618;28;20606;-60
2021/12/10 08:50:36;;;;;;;15.75;7.43;;;;;;;-8.13;60.13;100937.47;4971622;28;20454;-63
2021/12/10 08:53:07;;;;;;;11.38;4.97;;;;;;;-8.33;59.25;100944.34;4973218;28;20078;-55
2021/12/10 08:55:36;;;;;;;16.23;6.65;;;;;;;-8.02;58.91;100934.38;4972262;28;20062;-60
2021/12/10 08:58:04;;;;;;;14.02;4.22;;;;;;;-7.48;58.26;100938.63;4970644;28;20054;-61
2021/12/10 09:00:34;;;;;;;15.25;6.70;;;;;;;-6.90;57.08;100936.00;4971667;28;20106;-61
2021/12/10 09:03:02;;;;;;;16.27;6.47;;;;;;;-7.30;57.66;100941.84;4971442;28;20062;-63
2021/12/10 09:05:29;;;;;;;12.40;4.32;;;;;;;-7.48;58.58;100932.38;4972351;28;20125;-60
2021/12/10 09:07:58;;;;;;;12.10;5.00;;;;;;;-7.81;58.83;100931.84;4969513;28;20494;-58
2021/12/10 09:10:32;;;;;;;12.23;4.93;;;;;;;-8.02;58.06;100934.38;4972313;28;20061;-62
2021/12/10 09:13:00;;;;;;;18.15;6.72;;;;;;;-7.79;57.89;100929.78;4969326;28;20082;-60
2021/12/10 09:15:28;;;;;;;15.50;5.45;;;;;;;-7.99;58.41;100934.00;4971657;28;20059;-62
2021/12/10 09:17:58;;;;;;;17.25;6.93;;;;;;;-7.96;57.68;100933.66;4969468;28;20197;-63
2021/12/10 09:20:37;;;;;;;17.35;6.32;;;;;;;-8.19;58.01;100928.25;4971395;28;20089;-61
2021/12/10 09:23:08;;;;;;;12.95;5.47;;;;;;;-8.16;58.54;100921.63;4969091;28;20535;-60
2021/12/10 09:25:35;;;;;;;;;;;;;;;-8.11;58.36;100924.63;4972463;28;20050;-59
2021/12/10 09:28:02;;;;;;;16.00;4.90;;;;;;;-8.19;57.67;100927.38;4969566;28;19926;-58
2021/12/10 09:30:31;;;;;;;14.95;5.85;;;;;;;-8.31;58.18;100937.78;4973316;28;20146;-59
2021/12/10 09:32:59;;;;;;;12.55;4.47;;;;;;;-8.50;59.46;100930.13;4968996;28;20047;-60
2021/12/10 09:35:29;;;;;;;15.30;4.57;;;;;;;-8.66;59.61;100924.81;4971793;28;20246;-61
2021/12/10 09:37:57;;;;;;;13.50;5.60;;;;;;;-8.81;59.30;100934.66;4969217;28;20042;-60
2021/12/10 09:40:30;;;;;;;16.85;4.90;;;;;;;-8.81;59.91;100933.81;4971609;28;20082;-57
2021/12/10 09:42:57;;;;;;;14.32;4.90;;;;;;;-8.92;59.53;100936.91;4968925;28;20141;-58
2021/12/10 09:45:32;;;;;;;14.35;5.28;;;;;;;-9.04;59.89;100930.19;4971396;28;20053;-57
2021/12/10 09:47:59;;;;;;;9.95;4.95;;;;;;;-9.15;60.76;100939.47;4968897;28;20054;-57
2021/12/10 09:50:32;;;;;;;9.48;3.92;;;;;;;-9.31;60.50;100941.38;4970884;28;20116;-58
2021/12/10 09:52:59;;;;;;;7.72;3.78;;;;;;;-9.36;60.36;100935.66;4958958;28;20470;-59
2021/12/10 09:55:27;;;;;;;15.10;5.50;;;;;;;-9.41;60.53;100936.19;4970379;28;20069;-58
2021/12/10 09:57:55;;;;;;;11.25;4.25;;;;;;;-9.39;61.05;100949.47;4968039;28;20141;-59
2021/12/10 10:00:30;;;;;;;14.80;5.00;;;;;;;-9.31;61.05;100935.97;4952551;28;20390;-58
2021/12/10 10:02:58;;;;;;;13.40;4.55;;;;;;;-9.35;61.24;100940.88;4966834;28;20145;-59
2021/12/10 10:05:31;;;;;;;11.38;4.78;;;;;;;-9.33;60.87;100938.03;4970033;28;20517;-60
2021/12/10 10:08:05;;;;;;;14.43;5.13;;;;;;;-9.29;60.89;100939.34;4969224;28;20066;-60
2021/12/10 10:10:34;;;;;;;17.27;7.65;;;;;;;-9.23;61.04;100957.53;4970839;28;20524;-61
2021/12/10 10:13:03;;;;;;;28.90;6.40;;;;;;;-9.24;61.61;100945.06;4970820;28;20055;-58
2021/12/10 10:15:34;;;;;;;10.40;4.68;;;;;;;-9.18;61.50;100947.09;4972834;28;20093;-60
2021/12/10 10:18:03;;;;;;;;;;;;;;;-9.28;61.63;100949.94;4969897;28;20408;-60
2021/12/10 10:20:35;;;;;;;17.60;6.93;;;;;;;-9.25;60.72;100954.16;4974103;28;19933;-59
2021/12/10 10:23:04;;;;;;;22.27;7.70;;;;;;;-9.30;61.13;100953.84;4972490;28;20046;-59
2021/12/10 10:25:32;;;;;;;8.80;4.78;;;;;;;-9.32;61.23;100958.56;4975775;28;20419;-58
2021/12/10 10:27:59;;;;;;;14.85;5.18;;;;;;;-9.35;61.56;100958.88;4971530;28;20054;-61
2021/12/10 10:30:37;;;;;;;13.60;5.97;;;;;;;-9.32;61.67;100958.56;4974479;28;20073;-59
2021/12/10 10:33:08;;;;;;;16.25;6.88;;;;;;;-9.31;61.29;100954.84;4970978;28;20082;-58
2021/12/10 10:35:45;;;;;;;15.07;6.40;;;;;;;-9.30;61.48;100962.75;4973169;28;20039;-60
2021/12/10 10:38:14;;;;;;;12.70;5.63;;;;;;;-9.33;61.40;100964.97;4973450;28;20055;-60
2021/12/10 10:40:46;;;;;;;15.65;5.25;;;;;;;-9.28;61.70;100970.66;4974050;28;20081;-56
2021/12/10 10:43:13;;;;;;;12.48;5.07;;;;;;;-9.26;62.01;100974.03;4971581;28;20047;-58
2021/12/10 10:45:44;;;;;;;16.73;6.47;;;;;;;-9.25;61.94;100973.00;4974484;28;20074;-57
2021/12/10 10:48:13;;;;;;;13.52;7.35;;;;;;;-9.23;62.07;100968.28;4956437;28;20054;-56
2021/12/10 10:50:48;;;;;;;14.43;6.10;;;;;;;-9.20;61.51;100968.81;4973412;28;20054;-59
2021/12/10 10:53:18;;;;;;;12.82;5.38;;;;;;;-9.26;61.42;100974.03;4972193;28;20465;-60
2021/12/10 10:55:54;;;;;;;18.02;6.00;;;;;;;-9.31;61.13;100965.59;4974095;28;20053;-60
2021/12/10 10:58:25;;;;;;;18.52;6.95;;;;;;;-9.31;62.04;100965.59;4972373;28;20069;-61
2021/12/10 11:01:21;;;;;;;18.80;4.95;;;;;;;-9.23;61.96;100971.00;4973792;28;20506;-62
2021/12/10 11:04:24;;;;;;;16.70;6.53;;;;;;;-9.22;62.34;100964.59;4972793;28;20481;-58
2021/12/10 11:06:56;;;;;;;16.65;5.90;;;;;;;-9.17;61.52;100971.16;4970530;28;20149;-57
2021/12/10 11:09:30;;;;;;;13.10;5.57;;;;;;;-9.08;62.07;100971.97;4971823;28;20042;-57
2021/12/10 11:12:03;;;;;;;15.93;6.15;;;;;;;-9.04;61.86;100968.75;4974743;28;20046;-61
2021/12/10 11:14:51;;;;;;;19.77;5.90;;;;;;;-9.03;62.18;100969.63;4970515;28;20042;-59
2021/12/10 11:17:42;;;;;;;14.30;5.13;;;;;;;-9.04;61.96;100963.38;4973258;28;20204;-60
2021/12/10 11:20:12;;;;;;;;;;;;;;;-9.10;62.49;100963.22;4957853;28;20050;-60
2021/12/10 11:22:51;;;;;;;16.48;5.93;;;;;;;-9.06;61.56;100970.78;4971697;28;19932;-58
2021/12/10 11:25:25;;;;;;;10.95;4.53;;;;;;;-9.04;62.38;100957.13;4973646;28;20129;-61
2021/12/10 11:28:06;;;;;;;14.98;6.35;;;;;;;-9.02;61.70;100966.75;4970678;28;20086;-59
2021/12/10 11:30:33;;;;;;;16.35;6.20;;;;;;;-9.02;62.15;100971.28;4974239;28;20057;-59
2021/12/10 11:33:43;;;;;;;16.08;5.95;;;;;;;-8.97;62.45;100975.16;4971614;28;20077;-60
2021/12/10 11:36:19;;;;;;;24.83;6.45;;;;;;;-8.96;61.57;100960.66;4960687;28;20482;-61
2021/12/10 11:38:50;;;;;;;11.05;5.03;;;;;;;-9.00;62.51;100963.88;4973149;28;20479;-58
2021/12/10 11:41:22;;;;;;;21.70;6.85;;;;;;;-8.97;62.05;100963.53;4972322;28;20055;-60